Flight Track Log - Related Links

Times and Time Zones

All times are in EST time to prevent confusion due to time zone crossing. See the SKW6492 flight status page for this flight to view local times or setup timezone preferences in your user account.

Time Position Orientation Groundspeed Altitude Reporting Facility
EST Latitude Longitude Course Direction KTS MPH feet Rate Location/Type
Thu 10:56:33 PM 39.8500 -104.7667 346° North 181 208 6,900  Level Denver TRACON
Thu 10:57:39 PM 39.8833 -104.8500 298° West 253 291 9,100 2,500 Climbing Denver TRACON
Thu 10:58:45 PM 39.9500 -104.9000 330° Northwest 278 320 12,400 2,300 Climbing Denver TRACON
Thu 10:59:39 PM 40.0167 -104.9000 360° North 322 371 13,700 1,821 Climbing Denver TRACON
Thu 11:01:10 PM 40.1667 -104.8897 North 338 389 16,800 1,855 Climbing Denver Center
Thu 11:02:00 PM 40.4289 -104.8541 346° North  Level FlightAware Approximate
Thu 11:02:11 PM 40.2614 -104.8842 North 341 392 18,400  Level Denver Center
Thu 11:03:12 PM 40.3611 -104.8775 North 355 409 20,200 1,475 Climbing Denver Center
Thu 11:04:13 PM 40.4572 -104.8722 North 349 402 21,400 1,220 Climbing Denver Center
Thu 11:05:15 PM 40.5606 -104.8631 North 366 421 22,700 1,171 Climbing Denver Center
Thu 11:06:16 PM 40.6650 -104.8553 North 374 430 23,800 984 Climbing Denver Center
Thu 11:07:17 PM 40.7719 -104.8486 North 383 441 24,700 1,024 Climbing Denver Center
Thu 11:08:19 PM 40.8978 -104.9033 342° North 397 457 25,900 976 Climbing Denver Center
Thu 11:09:20 PM 41.0033 -104.9553 340° North 402 463 26,700 1,033 Climbing Denver Center
Thu 11:10:21 PM 41.1033 -105.0056 339° North 405 466 28,000 1,328 Climbing Denver Center
Thu 11:11:22 PM 41.1992 -105.0564 338° Northwest 393 452 29,400 1,317 Climbing Denver Center
Thu 11:12:24 PM 41.3089 -105.1069 341° North 377 434 30,700 1,220 Climbing Denver Center
Thu 11:13:25 PM 41.3992 -105.1539 339° North 368 423 31,900 639 Climbing Denver Center
Thu 11:14:26 PM 41.4956 -105.2389 327° Northwest 374 430 32,000 49 Climbing Denver Center
Thu 11:15:27 PM 41.5758 -105.3328 319° Northwest 391 450 32,000  Level Denver Center
Thu 11:16:28 PM 41.6569 -105.4275 319° Northwest 401 461 32,000  Level Denver Center
Thu 11:17:29 PM 41.7539 -105.5425 319° Northwest 411 473 32,000  Level Denver Center
Thu 11:18:31 PM 41.8375 -105.6403 319° Northwest 415 478 32,000  Level Denver Center
Thu 11:19:32 PM 41.9208 -105.7392 319° Northwest 416 479 32,000  Level Denver Center
Thu 11:20:33 PM 42.0197 -105.8567 319° Northwest 422 486 32,000  Level Denver Center
Thu 11:21:34 PM 42.1019 -105.9556 318° Northwest 416 479 32,000  Level Denver Center
Thu 11:22:35 PM 42.1986 -106.0722 318° Northwest 416 479 32,000  Level Denver Center
Thu 11:23:36 PM 42.2803 -106.1706 318° Northwest 413 475 32,000  Level Denver Center
Thu 11:24:37 PM 42.3614 -106.2697 318° Northwest 410 472 32,000  Level Denver Center
Thu 11:25:39 PM 42.4564 -106.3847 318° Northwest 409 471 32,000  Level Denver Center
Thu 11:26:40 PM 42.5367 -106.4833 318° Northwest 408 470 32,000  Level Denver Center
Thu 11:27:41 PM 42.6181 -106.5817 318° Northwest 408 470 32,000  Level Denver Center
Thu 11:28:42 PM 42.7094 -106.6961 317° Northwest 403 464 32,000  Level Denver Center
Thu 11:29:43 PM 42.7906 -106.7933 319° Northwest 404 465 32,000  Level Denver Center
Thu 11:30:44 PM 42.8694 -106.8925 317° Northwest 402 463 32,000  Level Denver Center
Thu 11:31:42 PM 42.9506 -106.9956 317° Northwest 400 460 32,000  Level Salt Lake Center
Thu 11:32:43 PM 43.0333 -107.0986 318° Northwest 403 464 32,000  Level Salt Lake Center
Thu 11:33:44 PM 43.1161 -107.2017 318° Northwest 403 464 32,000  Level Salt Lake Center
Thu 11:34:46 PM 43.1978 -107.3061 317° Northwest 403 464 32,000  Level Salt Lake Center
Thu 11:35:47 PM 43.2800 -107.4083 318° Northwest 399 459 32,000  Level Salt Lake Center
Thu 11:36:48 PM 43.3783 -107.5333 317° Northwest 401 461 32,000  Level Salt Lake Center
Thu 11:37:49 PM 43.4653 -107.6256 322° Northwest 395 455 32,000 -393 Level Salt Lake Center
Thu 11:38:50 PM 43.5558 -107.7078 327° Northwest 391 450 31,200 -1,463 Descending Salt Lake Center
Thu 11:39:52 PM 43.6494 -107.7936 326° Northwest 401 461 29,000 -2,049 Descending Salt Lake Center
Thu 11:40:53 PM 43.7433 -107.8817 326° Northwest 408 470 27,000 -2,066 Descending Salt Lake Center
Thu 11:41:54 PM 43.8369 -107.9675 327° Northwest 404 465 24,800 -2,115 Descending Salt Lake Center
Thu 11:42:55 PM 43.9281 -108.0550 325° Northwest 400 460 22,700 -2,049 Descending Salt Lake Center
Thu 11:43:57 PM 44.0178 -108.1381 326° Northwest 389 448 20,600 -2,000 Descending Salt Lake Center
Thu 11:44:58 PM 44.1064 -108.2214 326° Northwest 386 444 18,600 -1,820 Descending Salt Lake Center
Thu 11:45:59 PM 44.1883 -108.3003 325° Northwest 375 432 16,900 -1,820 Descending Salt Lake Center
Thu 11:47:00 PM 44.2681 -108.3767 326° Northwest 363 418 14,900 -1,951 Descending Salt Lake Center
Thu 11:48:02 PM 44.3464 -108.4514 326° Northwest 352 405 12,900 -1,756 Descending Salt Lake Center
Thu 11:49:03 PM 44.4344 -108.5358 326° Northwest 336 387 11,300 -1,279 Descending Salt Lake Center
Thu 11:50:04 PM 44.4875 -108.5867 326° Northwest 275 316 10,300 -934 Descending Salt Lake Center
Thu 11:51:05 PM 44.5406 -108.6358 327° Northwest 244 281 9,400 -787 Descending Salt Lake Center
Thu 11:52:06 PM 44.5939 -108.6878 325° Northwest 236 272 8,700 -683 Descending Salt Lake Center
Thu 11:53:08 PM 44.6447 -108.7414 323° Northwest 232 267 8,000 -537 Descending Salt Lake Center
Thu 11:54:09 PM 44.6406 -108.8097 265° West 203 234 7,600 -246 Descending Salt Lake Center
Thu 11:55:10 PM 44.6111 -108.8653 233° Southwest 187 215 7,500 -295 Descending Salt Lake Center
Thu 11:56:11 PM 44.5850 -108.9114 232° Southwest 171 197 7,000 -590 Descending Salt Lake Center
Thu 11:57:12 PM 44.5625 -108.9519 232° Southwest 148 170 6,300 -492 Descending Salt Lake Center
Thu 11:58:13 PM 44.5342 -109.0017 231° Southwest 145 167 6,000 -295 Descending Salt Lake Center
Fri 12:00:00 AM 44.5167 -109.0167 245° Southwest  Level FlightAware Approximate

Login

Don't have an account? Register now (free) for customized features, flight alerts, and more!